Historyczne dane pomiarowe

Dodano dane terminowe – wersja testowa.

Dane z okresu 1951-2019

Wersja bazy: 1.34 [2019-03-16, lista zmian], aktualizacja planowana na 2019-04-15

Dane meteo z obszaru Polski uzyskane na podstawie danych udostępnionych przez Instytut Meteorologii i Gospodarki Wodnej – Państwowy Instytut Badawczy.

 

Wybierz Datę:    

       

TemperaturaWilgotnośćWiatrCiśnienieOpadyŚniegCzas trwania zjawisk
 Stacja t tx tn tng RH VA  wxwx mslp ppp RRR   cm mm wxwxwxwxwxwxwx
1994-08-14 12.8 17.1 9.9 8.2-- 7.0 5.7---- 8.2------------
1994-08-13 15.8 20.1 13.6 14.3-- 6.0 4.3---- 5.5------------
1994-08-12 17.3 21.1 15.8 14.8-- 8.0 2.3---- 0.9------------
1994-08-11 20.7 26.5 15.5 11.1-- 7.3 3.3---- 0.8------------
1994-08-10 20.9 28.0 11.2 7.6-- 6.0 1.7---- 0.0------------
1994-08-09 21.4 27.5 14.9 13.2-- 7.0 3.0---- 0.0------------
1994-08-08 22.0 27.5 16.5 15.0-- 5.3 2.0---- 0.0------------
1994-08-07 22.2 27.9 16.7 12.9-- 2.7 1.7---- 0.0------------
1994-08-06 25.1 30.4 17.1 12.2-- 0.3 3.3---- 2.0------------
1994-08-05 24.6 32.5 14.9 11.1-- 0.0 1.7---- 0.0------------
1994-08-04 22.0 28.9 12.4 7.2-- 0.3 1.0---- 0.0------------
1994-08-03 23.2 29.0 19.1 14.5-- 1.3 3.0---- 0.0------------
1994-08-02 26.3 32.5 21.8 11.7-- 6.0 3.3---- 4.3------------
1994-08-01 27.3 36.0 21.2 15.2-- 2.7 1.0---- 0.4------------
1994-07-31 28.0 37.0 17.8 14.4-- 0.7 2.3---- 0.0------------
1994-07-30 26.9 36.8 15.6 11.7-- 0.0 2.3---- 0.0------------
1994-07-29 27.7 35.8 16.4 12.5-- 0.0 2.0---- 0.0------------
1994-07-28 25.2 35.0 16.6 12.7-- 0.0 0.7---- 0.0------------
1994-07-27 26.7 34.0 18.9 15.3-- 4.7 1.0---- 0.0------------
1994-07-26 26.8 34.6 15.3 11.6-- 0.3 1.7---- 0.0------------
1994-07-25 25.3 33.0 13.9 9.9-- 0.3 2.0---- 0.0------------
1994-07-24 23.8 31.2 13.9 10.4-- 0.0 2.3---- 0.0------------
1994-07-23 23.6 30.2 12.3 9.7-- 0.0 2.0---- 0.0------------
1994-07-22 22.1 28.9 11.5 7.9-- 0.7 2.7---- 0.0------------
1994-07-21 20.0 28.4 9.7 5.8-- 0.0 1.0---- 0.0------------
1994-07-20 18.2 25.1 9.1 5.6-- 0.0 1.3---- 0.0------------
1994-07-19 18.4 23.3 11.2 8.9-- 4.0 3.3---- 0.0------------
1994-07-18 19.0 24.3 11.9 10.3-- 5.0 2.3---- 0.0------------
1994-07-17 21.6 26.6 13.9 11.7-- 2.7 3.0---- 0.0------------
1994-07-16 21.9 27.9 17.3 16.0-- 2.3 2.7---- 0.0------------
1994-07-15 25.3 31.2 18.5 14.5-- 3.0 2.0---- 7.2------------
1994-07-14 24.1 31.7 13.9 10.1-- 1.0 2.7---- 0.0------------
1994-07-13 23.9 30.5 15.3 10.2-- 0.3 3.0---- 0.0------------
1994-07-12 22.5 29.0 13.9 10.4-- 0.0 3.7---- 0.0------------
1994-07-11 21.6 28.0 12.3 10.3-- 0.0 2.3---- 0.0------------
1994-07-10 19.4 26.4 12.6 11.5-- 3.7 1.7---- 0.0------------
1994-07-09 16.8 20.3 13.7 13.6-- 7.7 2.7---- 4.9------------
1994-07-08 14.2 20.6 13.3 13.6-- 8.0 4.0---- 28.0------------
1994-07-07 18.3 24.5 9.0 5.5-- 5.7 3.7---- 22.1------------
1994-07-06 19.7 24.3 14.4 12.5-- 4.0 3.0---- 0.0------------
1994-07-05 19.4 25.0 11.9 10.2-- 5.0 2.0---- 0.0------------
1994-07-04 21.6 27.4 11.8 7.7-- 0.7 2.7---- 0.0------------
1994-07-03 19.4 26.5 10.7 5.9-- 0.0 3.7---- 0.0------------
1994-07-02 17.8 24.6 8.6 3.8-- 0.0 2.3---- 0.0------------
1994-07-01 17.5 23.5 9.1 5.5-- 1.7 3.7---- 0.0------------
1994-06-30 19.5 28.3 17.4 17.3-- 3.3 3.0---- 0.0------------
1994-06-29 25.2 32.6 15.2 15.0-- 2.3 2.0---- 8.0------------
1994-06-28 22.4 29.0 13.8 11.5-- 0.0 2.0---- 0.0------------
1994-06-27 22.7 29.9 14.9 12.2-- 2.7 1.0---- 0.0------------
1994-06-26 22.0 30.0 11.4 6.2-- 0.3 2.0---- 0.0------------
1994-06-25 17.4 24.4 6.1 0.8-- 0.0 3.3---- 0.0------------
1994-06-24 15.0 20.1 8.0 6.2-- 0.3 3.7---- 0.0------------
1994-06-23 16.7 21.5 11.8 9.5-- 3.0 5.0---- 0.0------------
1994-06-22 19.8 24.7 16.4 13.7-- 7.7 4.0---- 0.0------------
1994-06-21 15.9 23.0 6.0 2.5-- 3.3 1.7---- 0.0------------
1994-06-20 16.0 20.2 12.6 11.6-- 5.0 4.7---- 0.0------------
1994-06-19 16.9 21.9 11.2 10.1-- 5.0 3.3---- 0.2------------
1994-06-18 13.1 17.4 5.4 2.8-- 7.0 2.7---- 8.1------------
1994-06-17 11.1 13.9 6.1 4.7-- 5.0 3.0---- 1.2------------
1994-06-16 11.9 15.1 9.2 9.4-- 8.0 3.3---- 7.4------------
789.2 ms

 

Źródłem pochodzenia danych jest Instytut Meteorologii i Gospodarki Wodnej – Państwowy Instytut Badawczy. Dane Instytutu Meteorologii i Gospodarki Wodnej – Państwowego Instytutu Badawczego zostały przetworzone.

Dane źródłowe można odnaleźć na stronie https://dane.imgw.pl